Portada
METAR-TAF:

METAR-TAF

Aeropuertos :

Aeropuerto Cherif Al Idrissi

Alhucemas, Marruecos

latitud: 35-11N, longitud: 003-51W, altitud: 27 m

Observación

El informe se hizo hace 28 minutos, a las 05:00 UTC
Viento 2 kt con dirección variable
Temperatura 23°C
Humedad 94%
Presión 1019 hPa
Visibilidad 10 km o más
Cielo nuboso a una altura de 1000 ft

METAR: GMTA 240500Z VRB02KT 9999 BKN010 23/22 Q1019 NOSIG

Hora: 06:28 (05:28 UTC)

Pronóstico

El informe se hizo hace 6 horas y 28 minutos, a las 23:00 UTC
Pronóstico válido del 24 a las 00 UTC al 25 a las 06 UTC
Viento 2 kt con dirección variable
Visibilidad 10 km o más
sin nubes por debajo de 1500 m y sin presencia de cumulonimbus.

TAF: GMTA 232300Z 2400/2506 VRB02KT CAVOK

Observaciones y pronósticos meteorológicos de más de 4000 aeropuertos (mensajes METAR y TAF).

Los puntos amarillos y rojos representan las estaciones disponibles.

Ponga el ratón en el punto deseado para ver el nombre de la estación.

Haga clic para ver las observaciones y los pronósticos meteorológicos.

Para cambiar el mapa : haga clic en los botones verdes con una cruz de color negro para hacer un zoom, en el botón verde con un guión para alejar o en las flechas verdes para mapas adyacentes.


METAR-TAF: